KMFR/MFR METAR and TAF weather

Enter ICAO airport designator
Station Type Date Time Source
KMFR METAR 2021/07/27 21:53 UTC NOAA

KMFR 272153Z 31004KT 10SM FEW110 21/17 A3010 RMK AO2 RAB25E37 SLP181 P0000 T02110172


Station Type Date Time Source
KMFR Decoded METAR 2021/07/27 21:53 UTC NOAA

ROGUE VALLEY INTERNATIONAL AIRPORT, OR, United States (KMFR) 42-23N 122-53W 396M
Jul 27, 2021 - 05:53 PM EDT / 2021.07.27 2153 UTC
Wind: from the NW (310 degrees) at 5 MPH (4 KT):0
Visibility: 10 mile(s):0
Sky conditions: mostly clear
Precipitation last hour: A trace
Temperature: 70.0 F (21.1 C)
Dew Point: 63.0 F (17.2 C)
Relative Humidity: 78%
Pressure (altimeter): 30.1 in. Hg (1019 hPa)
ob: KMFR 272153Z 31004KT 10SM FEW110 21/17 A3010 RMK AO2 RAB25E37 SLP181 P0000 T02110172
cycle: 22

Station Type Date Time Source
KMFR TAF 2021/07/27 18:24 UTC NOAA

TAF KMFR 271721Z 2718/2818 32005KT P6SM SCT120 BKN200
FM272300 32007KT P6SM VCSH SCT080 OVC100
FM280200 VRB04KT P6SM BKN120 BKN200

Example: see airport list